This is the latest recevied weather packets stored in our database for station/object W4SNA-2. If no packets are shown the sender has not sent any weather packets the latest 1 day(s).
| Time | Temp. | Humidity | Pressure | Rain* | Wind** | Luminosity | Snow |
|---|---|---|---|---|---|---|---|
| 1778008983 | 22.22° C | 41% | 1015.9 hPa | 0 mm | 2.24 m/s, 178° | - | - |
| 1778008683 | 22.22° C | 42% | 1016.1 hPa | 0 mm | 3.13 m/s, 187° | - | - |
| 1778008384 | 22.22° C | 41% | 1016 hPa | 0 mm | 3.58 m/s, 196° | - | - |
| 1778008084 | 22.22° C | 42% | 1016.1 hPa | 0 mm | 3.13 m/s, 187° | - | - |
| 1778007783 | 21.67° C | 43% | 1016.1 hPa | 0 mm | 3.58 m/s, 184° | - | - |
| 1778007483 | 22.22° C | 42% | 1016 hPa | 0 mm | 4.02 m/s, 197° | - | - |
| 1778007183 | 22.22° C | 41% | 1016 hPa | 0 mm | 4.02 m/s, 195° | - | - |
| 1778006884 | 22.78° C | 42% | 1016.3 hPa | 0 mm | 4.47 m/s, 200° | - | - |
| 1778006583 | 22.22° C | 43% | 1016.4 hPa | 0 mm | 3.58 m/s, 191° | - | - |
| 1778006235 | 22.22° C | 44% | 1016.5 hPa | 0 mm | 4.02 m/s, 191° | - | - |
| 1778005937 | 22.22° C | 43% | 1016.7 hPa | 0 mm | 3.13 m/s, 188° | - | - |
| 1778005636 | 21.67° C | 44% | 1016.6 hPa | 0 mm | 3.13 m/s, 189° | - | - |
| 1778005336 | 21.67° C | 44% | 1016.7 hPa | 0 mm | 3.13 m/s, 188° | - | - |
| 1778005034 | 21.67° C | 45% | 1017 hPa | 0 mm | 3.58 m/s, 195° | - | - |
| 1778004735 | 21.67° C | 43% | 1016.9 hPa | 0 mm | 3.58 m/s, 195° | - | - |
| 1778004434 | 22.22° C | 43% | 1016.8 hPa | 0 mm | 3.13 m/s, 200° | - | - |
| 1778004135 | 22.22° C | 45% | 1016.9 hPa | 0 mm | 2.68 m/s, 188° | - | - |
| 1778003834 | 21.67° C | 49% | 1016.9 hPa | 0 mm | 1.79 m/s, 188° | - | - |
| 1778003534 | 21.67° C | 48% | 1016.9 hPa | 0 mm | 2.68 m/s, 198° | - | - |
| 1778003235 | 21.67° C | 46% | 1016.9 hPa | 0 mm | 3.13 m/s, 192° | - | - |
| 1778002934 | 21.67° C | 47% | 1017 hPa | 0 mm | 2.68 m/s, 190° | - | - |
| 1778002634 | 21.67° C | 47% | 1017 hPa | 0 mm | 2.24 m/s, 183° | - | - |
| 1778002334 | 21.11° C | 48% | 1017 hPa | 0 mm | 2.24 m/s, 198° | - | - |
| 1778002034 | 21.67° C | 47% | 1017 hPa | 0 mm | 2.68 m/s, 193° | - | - |
| 1778001735 | 21.67° C | 49% | 1017.2 hPa | 0 mm | 1.79 m/s, 187° | - | - |
* Rain latest hour (hover to see other rain measurements)
** Current wind speed in m/s (hover to see current wind gust speed)